Latest Coastal Weather Observations for Neptune Island

IDT60701

Issued at 12:52 pm EST Sunday 24 July 2016 (issued every 10 minutes, with the page automatically refreshed every 10 minutes)

About coastal observations | Map of coastal stations | Coastal observations for TAS | Marine services | Other Formats
Station Details ID: 018115 Name: NEPTUNE ISLAND Lat: -35.34 Lon: 136.12 Height: 32.0 m
Data from the previous 72 hours. | See also: Recent months at Neptune Island
Date/Time
EST
Temp
°C
Wind Pressure Rain since
9am
mm
Weather Cloud Vis
km
Sea
Height
m
Swell
Dir  Spd
kts
Gust
kts
hPa Trend Height
m
Period
s
Dir
24/12:34pm 11.9 W 36 47 1005.9 - 0.4 - - - - - - -
24/12:30pm 12.5 W 35 43 1006.1 - 0.4 - - - - - - -
24/12:00pm 11.7 W 36 44 1006.3 - 0.4 - - - - - - -
24/11:30am 10.7 W 37 53 1006.4 - 0.4 - - - - - - -
24/11:20am 11.9 W 36 46 1006.1 - 0.0 - - - - - - -
24/11:00am 11.7 W 37 44 1005.8 - 0.0 - - - - - - -
24/10:30am 11.4 W 36 43 1005.8 - 0.0 - - - - - - -
24/10:00am 11.8 W 35 45 1005.3 - 0.0 - - - - - - -
24/09:30am 11.3 W 35 41 1005.1 - 16.0 - - - - - - -
24/09:10am 11.0 W 34 44 1004.7 - 16.0 - - - - - - -
24/09:00am 11.0 WSW 34 43 1004.6 - 16.0 - - - - - - -
24/08:41am 11.6 W 35 54 1003.9 - 16.0 - - - - - - -
24/08:30am 11.6 W 27 37 1004.2 - 16.0 - - - - - - -
24/08:04am 10.7 W 30 40 1004.4 - 16.0 - - - - - - -
24/08:00am 10.7 W 33 40 1004.3 - 16.0 - - - - - - -
24/07:30am 10.2 W 31 40 1004.0 - 16.0 - - - - - - -
24/07:10am 9.2 WSW 33 42 1004.4 - 15.4 - - - - - - -
24/07:00am 8.7 WSW 38 45 1004.2 - 14.8 - - - - - - -
24/06:48am 9.1 WSW 40 50 1003.8 - 14.0 - - - - - - -
24/06:30am 9.6 W 40 48 1003.6 - 13.2 Rain - - - - - -
24/06:25am 9.7 W 40 51 1003.3 - 12.2 - - - - - - -
24/06:19am 10.4 NW 35 51 1002.8 - 12.2 - - - - - - -
24/06:17am 12.7 NW 33 43 1003.3 - 12.2 - - - - - - -
24/06:00am 11.9 NW 33 43 1002.9 - 12.2 - - - - - - -
24/05:57am 12.0 NW 31 43 1002.9 - 12.2 - - - - - - -
24/05:38am 11.2 NNW 25 37 1003.9 - 11.6 - - - - - - -
24/05:32am 11.3 NW 27 37 1003.9 - 11.0 - - - - - - -
24/05:30am 12.1 NW 27 37 1003.7 - 11.0 - - - - - - -
24/05:00am 12.0 NW 31 40 1004.3 - 11.0 - - - - - - -
24/04:57am 11.8 NW 33 42 1004.5 - 11.0 - - - - - - -
24/04:50am 11.7 WNW 32 42 1004.2 - 11.0 - - - - - - -
24/04:38am 11.7 NW 25 35 1004.6 - 11.0 - - - - - - -
24/04:30am 11.8 NW 21 27 1005.0 - 10.8 - - - - - - -
24/04:00am 11.1 NNW 23 28 1005.7 - 9.0 - - - - - - -
24/03:37am 10.6 NNW 19 31 1006.2 - 8.6 - - - - - - -
24/03:30am 9.9 N 20 24 1007.0 - 8.4 Rain - - - - - -
24/03:00am 9.8 N 26 33 1007.6 - 5.0 - - - - - - -
24/02:43am 10.2 N 27 37 1007.1 - 3.6 - - - - - - -
24/02:30am 10.1 NNW 25 31 1008.0 - 3.0 - - - - - - -
24/02:00am 11.3 N 25 33 1008.5 - 2.4 - - - - - - -
24/01:30am 11.5 N 23 28 1009.1 - 2.4 - - - - - - -
24/01:00am 11.2 N 21 25 1009.6 - 2.4 - - - - - - -
24/12:30am 10.9 N 19 23 1010.5 - 2.4 - - - - - - -
24/12:00am 10.8 NNW 19 22 1011.3 - 2.4 - - - - - - -
 
Date/Time
EST
Temp
°C
Wind Pressure Rain since
9am
mm
Weather Cloud Vis
km
Sea
Height
m
Swell
Dir  Spd
kts
Gust
kts
hPa Trend Height
m
Period
s
Dir
23/11:30pm 11.2 NNW 20 25 1012.0 - 2.4 - - - - - - -
23/11:00pm 10.7 NNW 16 21 1012.2 - 2.4 - - - - - - -
23/10:30pm 10.3 NNW 22 27 1012.6 - 2.2 - - - - - - -
23/10:00pm 11.0 NNW 16 21 1012.9 - 2.0 - - - - - - -
23/09:30pm 10.8 WNW 12 15 1013.3 - 2.0 Recent precip. - - - - - -
23/09:12pm 11.1 WNW 17 29 1013.3 - 1.2 - - - - - - -
23/09:00pm 11.6 NW 16 21 1013.3 - 1.0 - - - - - - -
23/08:30pm 11.7 NW 14 18 1013.5 - 1.0 - - - - - - -
23/08:00pm 11.7 NW 15 18 1013.7 - 1.0 - - - - - - -
23/07:30pm 11.6 WNW 15 18 1013.6 - 1.0 - - - - - - -
23/07:00pm 11.7 WNW 17 20 1013.6 - 1.0 - - - - - - -
23/06:30pm 11.4 WNW 14 17 1013.6 - 1.0 Recent precip. - - - - - -
23/06:00pm 10.9 WNW 12 15 1013.7 - 1.0 - - - - - - -
23/05:30pm 10.9 WNW 13 21 1013.8 - 0.8 - - - - - - -
23/05:27pm 10.6 WNW 15 25 1013.9 - 0.8 - - - - - - -
23/05:20pm 10.7 WNW 17 25 1013.6 - 0.6 - - - - - - -
23/05:00pm 11.9 W 15 19 1013.8 - 0.4 - - - - - - -
23/04:30pm 12.5 W 17 21 1013.8 - 0.4 - - - - - - -
23/04:00pm 12.6 W 18 21 1013.8 - 0.4 - - - - - - -
23/03:30pm 12.6 W 17 21 1013.7 - 0.4 - - - - - - -
23/03:00pm 12.7 WSW 17 22 1013.6 - 0.4 - - - - - - -
23/02:30pm 12.4 WSW 17 22 1013.8 - 0.4 - - - - - - -
23/02:00pm 12.9 WSW 17 22 1014.0 - 0.4 - - - - - - -
23/01:30pm 12.5 WSW 18 21 1014.2 - 0.4 - - - - - - -
23/01:00pm 12.3 WSW 20 23 1014.5 - 0.4 - - - - - - -
23/12:30pm 11.5 SW 22 27 1014.8 - 0.4 - - - - - - -
23/12:12pm 11.7 WSW 19 29 1014.8 - 0.4 - - - - - - -
23/12:00pm 12.1 WSW 16 20 1015.1 - 0.4 - - - - - - -
23/11:30am 11.5 WSW 19 23 1015.0 - 0.4 - - - - - - -
23/11:00am 11.4 SW 16 21 1014.9 - 0.4 - - - - - - -
23/10:30am 10.5 SW 10 23 1014.8 - 0.4 - - - - - - -
23/10:07am 10.2 SW 18 28 1014.6 - 0.2 - - - - - - -
23/10:00am 10.1 SW 18 28 1014.5 - 0.2 - - - - - - -
23/09:57am 10.8 SW 14 27 1014.2 - 0.0 - - - - - - -
23/09:30am 10.0 SW 11 14 1014.1 - 5.8 Recent precip. - - - - - -
23/09:00am 10.2 SW 17 25 1013.7 - 5.8 - - - - - - -
23/08:30am 9.8 SW 14 18 1013.4 - 5.6 - - - - - - -
23/08:04am 9.7 SW 16 30 1013.2 - 5.0 - - - - - - -
23/08:00am 9.7 SSW 16 22 1013.2 - 5.0 - - - - - - -
23/07:40am 10.6 SW 19 30 1012.7 - 4.8 - - - - - - -
23/07:30am 10.5 SW 20 25 1012.6 - 4.6 - - - - - - -
23/07:00am 10.6 SSW 22 28 1012.1 - 4.6 - - - - - - -
23/06:30am 10.3 SW 21 27 1011.6 - 4.0 Recent precip. - - - - - -
23/06:08am 9.5 SW 28 36 1011.5 - 3.8 - - - - - - -
23/06:01am 10.1 SW 22 36 1011.1 - 2.8 - - - - - - -
23/06:00am 10.4 SW 20 36 1011.0 - 2.8 - - - - - - -
23/05:36am 11.3 SW 23 33 1010.8 - 2.6 - - - - - - -
23/05:30am 11.3 SW 22 27 1010.8 - 2.6 - - - - - - -
23/05:00am 11.3 SW 24 30 1010.3 - 2.6 - - - - - - -
23/04:30am 11.2 SSW 23 28 1009.9 - 2.4 - - - - - - -
23/04:00am 11.5 SW 21 26 1009.6 - 2.4 - - - - - - -
23/03:42am 11.0 SW 25 36 1009.3 - 2.4 - - - - - - -
23/03:30am 11.1 SW 26 34 1009.3 - 2.4 - - - - - - -
23/03:00am 11.4 SW 25 30 1009.0 - 2.4 - - - - - - -
23/02:30am 11.7 SW 23 29 1008.7 - 2.4 - - - - - - -
23/02:05am 11.7 WSW 19 26 1008.2 - 2.4 - - - - - - -
23/02:00am 11.0 WSW 21 25 1008.3 - 2.4 - - - - - - -
23/01:30am 12.2 WSW 24 29 1007.8 - 2.4 - - - - - - -
23/01:00am 11.7 WSW 21 29 1007.8 - 2.2 - - - - - - -
23/12:53am 11.6 WSW 23 33 1007.8 - 2.2 - - - - - - -
23/12:30am 12.2 WSW 25 30 1007.3 - 2.2 - - - - - - -
23/12:00am 12.2 WSW 27 32 1006.8 - 2.2 - - - - - - -
 
Date/Time
EST
Temp
°C
Wind Pressure Rain since
9am
mm
Weather Cloud Vis
km
Sea
Height
m
Swell
Dir  Spd
kts
Gust
kts
hPa Trend Height
m
Period
s
Dir
22/11:38pm 11.3 WSW 32 42 1006.7 - 2.2 - - - - - - -
22/11:30pm 11.6 WSW 32 41 1006.0 - 2.2 - - - - - - -
22/11:29pm 11.9 WSW 31 41 1006.1 - 2.2 - - - - - - -
22/11:00pm 11.7 WSW 34 43 1005.7 - 2.2 - - - - - - -
22/10:33pm 12.1 WSW 37 47 1004.7 - 2.2 - - - - - - -
22/10:30pm 12.6 WSW 36 43 1004.9 - 2.2 - - - - - - -
22/10:00pm 12.5 WSW 39 48 1004.4 - 2.2 - - - - - - -
22/09:34pm 12.7 W 37 47 1004.1 - 2.2 - - - - - - -
22/09:30pm 12.2 W 39 47 1003.8 - 2.2 - - - - - - -
22/09:06pm 12.5 WSW 42 52 1003.4 - 2.2 - - - - - - -
22/09:00pm 12.3 WSW 43 52 1003.2 - 2.2 - - - - - - -
22/08:30pm 12.5 W 43 53 1002.3 - 2.2 - - - - - - -
22/08:02pm 12.5 W 41 51 1001.7 - 2.2 - - - - - - -
22/08:00pm 12.5 W 41 49 1001.6 - 2.2 - - - - - - -
22/07:30pm 11.9 W 43 53 1001.1 - 2.2 - - - - - - -
22/07:01pm 12.3 W 44 54 1000.7 - 2.2 - - - - - - -
22/07:00pm 12.2 W 45 54 1000.6 - 2.2 - - - - - - -
22/06:30pm 12.1 W 42 54 1000.1 - 2.2 Recent precip. - - - - - -
22/06:03pm 11.7 W 45 57 999.3 - 2.2 - - - - - - -
22/06:00pm 12.4 W 44 51 999.6 - 2.2 - - - - - - -
22/05:30pm 12.4 W 43 53 999.4 - 2.0 - - - - - - -
22/05:26pm 12.2 W 43 53 999.2 - 2.0 - - - - - - -
22/05:20pm 12.1 W 41 52 999.0 - 2.0 - - - - - - -
22/05:02pm 11.3 W 35 47 999.1 - 2.0 - - - - - - -
22/05:00pm 11.1 W 34 41 999.5 - 2.0 - - - - - - -
22/04:49pm 10.3 W 41 55 999.6 - 2.0 - - - - - - -
22/04:30pm 11.3 W 45 55 998.3 - 1.0 - - - - - - -
22/04:01pm 13.5 W 40 50 998.5 - 1.0 - - - - - - -
22/04:00pm 13.5 W 41 50 998.5 - 1.0 - - - - - - -
22/03:52pm 13.4 W 39 50 998.0 - 1.0 - - - - - - -
22/03:30pm 12.8 W 38 46 997.9 - 1.0 Recent precip. - - - - - -
22/03:00pm 12.0 W 43 59 997.7 - 1.0 - - - - - - -
22/02:55pm 12.4 WNW 39 59 997.4 - 0.8 - - - - - - -
22/02:41pm 13.9 WNW 39 49 997.5 - 0.8 - - - - - - -
22/02:30pm 13.6 WNW 35 44 997.7 - 0.8 - - - - - - -
22/02:00pm 13.1 WNW 36 44 997.9 - 0.8 - - - - - - -
22/01:41pm 11.1 WNW 30 45 998.1 - 0.6 - - - - - - -
22/01:39pm 13.6 WNW 27 45 998.4 - 0.4 - - - - - - -
22/01:30pm 13.7 WNW 29 35 998.2 - 0.2 - - - - - - -
22/01:05pm 14.1 WNW 34 45 998.6 - 0.0 - - - - - - -
22/01:00pm 14.9 WNW 33 39 998.6 - 0.0 - - - - - - -
22/12:56pm 15.0 WNW 29 39 998.5 - 0.0 - - - - - - -
22/12:51pm 15.0 WNW 25 35 998.7 - 0.0 - - - - - - -
22/12:30pm 15.0 WNW 28 35 998.9 - 0.0 - - - - - - -
22/12:00pm 15.0 WNW 29 36 999.4 - 0.0 - - - - - - -
22/11:30am 14.8 WNW 30 36 999.5 - 0.0 - - - - - - -
22/11:00am 15.2 W 25 30 1000.0 - 0.0 - - - - - - -
22/10:30am 15.3 WNW 24 28 1000.5 - 0.0 - - - - - - -
22/10:00am 14.9 W 26 32 1000.6 - 0.0 - - - - - - -
22/09:30am 14.8 WNW 26 33 1000.8 - 0.6 - - - - - - -
22/09:00am 14.7 WNW 27 34 1000.8 - 0.6 - - - - - - -
22/08:30am 14.7 WNW 24 29 1000.8 - 0.6 - - - - - - -
22/08:00am 14.6 WNW 28 34 1000.6 - 0.6 - - - - - - -
22/07:30am 14.9 WNW 26 33 1000.7 - 0.6 - - - - - - -
22/07:00am 15.0 WNW 27 33 1000.6 - 0.6 - - - - - - -
22/06:30am 14.9 WNW 30 36 1000.4 - 0.6 - - - - - - -
22/06:00am 15.0 WNW 29 35 1000.2 - 0.6 - - - - - - -
22/05:41am 15.2 WNW 30 40 1000.3 - 0.6 - - - - - - -
22/05:30am 15.2 WNW 28 36 1000.4 - 0.6 - - - - - - -
22/05:24am 15.3 WNW 27 37 1000.2 - 0.6 - - - - - - -
22/05:00am 15.2 WNW 32 38 1000.4 - 0.6 - - - - - - -
22/04:30am 15.1 WNW 31 38 1000.7 - 0.6 - - - - - - -
22/04:00am 15.2 WNW 30 35 1000.8 - 0.6 - - - - - - -
22/03:37am 15.2 WNW 27 37 1001.0 - 0.6 - - - - - - -
22/03:30am 15.3 WNW 28 34 1001.3 - 0.6 - - - - - - -
22/03:00am 15.2 WNW 29 34 1001.4 - 0.6 - - - - - - -
22/02:30am 15.4 WNW 28 35 1001.7 - 0.6 - - - - - - -
22/02:00am 15.4 WNW 29 37 1001.9 - 0.6 - - - - - - -
22/01:52am 15.3 WNW 28 37 1001.6 - 0.6 - - - - - - -
22/01:30am 15.4 NW 21 27 1002.0 - 0.6 - - - - - - -
22/01:00am 15.4 NW 20 24 1002.2 - 0.6 - - - - - - -
22/12:30am 15.3 NW 19 24 1002.5 - 0.6 - - - - - - -
22/12:00am 15.5 NW 18 22 1002.9 - 0.6 - - - - - - -
 
Date/Time
EST
Temp
°C
Wind Pressure Rain since
9am
mm
Weather Cloud Vis
km
Sea
Height
m
Swell
Dir  Spd
kts
Gust
kts
hPa Trend Height
m
Period
s
Dir
21/11:30pm 15.5 NW 18 22 1003.2 - 0.6 - - - - - - -
21/11:00pm 15.7 NW 18 22 1003.4 - 0.0 - - - - - - -
21/10:30pm 15.8 WNW 18 22 1003.7 - 0.0 - - - - - - -
21/10:00pm 15.9 WNW 19 23 1003.5 - 0.0 - - - - - - -
21/09:30pm 16.0 WNW 19 22 1003.3 - 0.0 - - - - - - -
21/09:00pm 16.2 WNW 21 26 1003.4 - 0.0 - - - - - - -
21/08:30pm 16.5 WNW 22 26 1003.5 - 0.0 - - - - - - -
21/08:00pm 16.7 NW 21 26 1003.0 - 0.0 - - - - - - -
21/07:30pm 16.9 NW 22 27 1002.8 - 0.0 - - - - - - -
21/07:00pm 17.5 NW 25 31 1002.7 - 0.0 - - - - - - -
21/06:30pm 18.1 NW 25 31 1002.7 - 0.0 - - - - - - -
21/06:00pm 19.2 NW 28 33 1002.2 - 0.0 - - - - - - -
21/05:47pm 18.6 NW 21 25 1002.4 - 0.0 - - - - - - -
21/05:30pm 18.9 N 16 19 1002.2 - 0.0 - - - - - - -
21/05:00pm 19.1 N 20 24 1002.1 - 0.0 - - - - - - -
21/04:30pm 19.4 N 20 24 1002.2 - 0.0 - - - - - - -
21/04:00pm 19.1 N 21 24 1002.7 - 0.0 - - - - - - -
21/03:30pm 19.4 N 21 25 1002.9 - 0.0 - - - - - - -
21/03:00pm 18.9 N 20 26 1003.4 - 0.0 - - - - - - -
21/02:30pm 17.7 NNE 19 22 1004.2 - 0.0 - - - - - - -
21/02:00pm 17.7 N 22 24 1005.1 - 0.0 - - - - - - -
21/01:30pm 17.5 N 21 23 1005.3 - 0.0 - - - - - - -

Other Formats:

Comma delimited format used in spreadsheet applications
http://www.bom.gov.au/fwo/IDT60701/IDT60701.94804.axf

JavaScript Object Notation format (JSON) in row-major order
http://www.bom.gov.au/fwo/IDT60701/IDT60701.94804.json